sensor_id;sensor_type;location;lat;lon;timestamp;pressure;altitude;pressure_sealevel;temperature;humidity
23261;BME280;11799;47.740;-3.390;2023-03-14T00:02:19;99830.91;;;9.56;100.00
23261;BME280;11799;47.740;-3.390;2023-03-14T00:04:44;99841.44;;;9.56;100.00
23261;BME280;11799;47.740;-3.390;2023-03-14T00:07:11;99848.78;;;9.52;100.00
23261;BME280;11799;47.740;-3.390;2023-03-14T00:09:38;99854.34;;;9.49;100.00
23261;BME280;11799;47.740;-3.390;2023-03-14T00:12:04;99856.53;;;9.44;100.00
23261;BME280;11799;47.740;-3.390;2023-03-14T00:14:31;99869.72;;;9.44;100.00
23261;BME280;11799;47.740;-3.390;2023-03-14T00:16:57;99884.97;;;9.41;100.00
23261;BME280;11799;47.740;-3.390;2023-03-14T00:19:22;99898.13;;;9.41;100.00
23261;BME280;11799;47.740;-3.390;2023-03-14T00:21:48;99905.34;;;9.39;100.00
23261;BME280;11799;47.740;-3.390;2023-03-14T00:24:13;99906.56;;;9.35;100.00
23261;BME280;11799;47.740;-3.390;2023-03-14T00:26:39;99902.28;;;9.34;100.00
23261;BME280;11799;47.740;-3.390;2023-03-14T00:29:05;99929.59;;;9.33;100.00
23261;BME280;11799;47.740;-3.390;2023-03-14T00:31:31;99935.81;;;9.32;100.00
23261;BME280;11799;47.740;-3.390;2023-03-14T00:33:56;99942.88;;;9.31;100.00
23261;BME280;11799;47.740;-3.390;2023-03-14T00:36:23;99958.00;;;9.29;100.00
23261;BME280;11799;47.740;-3.390;2023-03-14T00:38:50;99952.03;;;9.27;100.00
23261;BME280;11799;47.740;-3.390;2023-03-14T00:41:18;99969.09;;;9.23;100.00
23261;BME280;11799;47.740;-3.390;2023-03-14T00:43:44;99973.66;;;9.21;100.00
23261;BME280;11799;47.740;-3.390;2023-03-14T00:46:11;99975.72;;;9.17;100.00
23261;BME280;11799;47.740;-3.390;2023-03-14T00:48:37;99991.91;;;9.13;100.00
23261;BME280;11799;47.740;-3.390;2023-03-14T00:51:04;99986.78;;;9.11;100.00
23261;BME280;11799;47.740;-3.390;2023-03-14T00:53:30;100002.38;;;9.03;100.00
23261;BME280;11799;47.740;-3.390;2023-03-14T00:55:55;100001.81;;;9.00;100.00
23261;BME280;11799;47.740;-3.390;2023-03-14T00:58:21;100012.00;;;8.93;100.00
23261;BME280;11799;47.740;-3.390;2023-03-14T01:00:47;100019.22;;;8.91;100.00
23261;BME280;11799;47.740;-3.390;2023-03-14T01:03:14;100029.88;;;8.89;100.00
23261;BME280;11799;47.740;-3.390;2023-03-14T01:05:40;100042.31;;;8.87;100.00
23261;BME280;11799;47.740;-3.390;2023-03-14T01:08:07;100046.16;;;8.83;100.00
23261;BME280;11799;47.740;-3.390;2023-03-14T01:10:34;100058.75;;;8.80;100.00
23261;BME280;11799;47.740;-3.390;2023-03-14T01:13:04;100058.88;;;8.78;100.00
23261;BME280;11799;47.740;-3.390;2023-03-14T01:15:34;100065.94;;;8.78;100.00
23261;BME280;11799;47.740;-3.390;2023-03-14T01:18:01;100080.91;;;8.77;100.00
23261;BME280;11799;47.740;-3.390;2023-03-14T01:20:26;100085.34;;;8.77;100.00
23261;BME280;11799;47.740;-3.390;2023-03-14T01:22:53;100082.09;;;8.73;100.00
23261;BME280;11799;47.740;-3.390;2023-03-14T01:25:18;100095.53;;;8.70;100.00
23261;BME280;11799;47.740;-3.390;2023-03-14T01:27:44;100096.34;;;8.71;100.00
23261;BME280;11799;47.740;-3.390;2023-03-14T01:30:11;100100.91;;;8.69;100.00
23261;BME280;11799;47.740;-3.390;2023-03-14T01:32:38;100116.81;;;8.67;100.00
23261;BME280;11799;47.740;-3.390;2023-03-14T01:35:04;100125.72;;;8.66;100.00
23261;BME280;11799;47.740;-3.390;2023-03-14T01:37:31;100120.69;;;8.63;100.00
23261;BME280;11799;47.740;-3.390;2023-03-14T01:39:57;100130.63;;;8.59;100.00
23261;BME280;11799;47.740;-3.390;2023-03-14T01:42:22;100144.63;;;8.60;100.00
23261;BME280;11799;47.740;-3.390;2023-03-14T01:44:54;100150.97;;;8.57;100.00
23261;BME280;11799;47.740;-3.390;2023-03-14T01:47:20;100162.34;;;8.58;100.00
23261;BME280;11799;47.740;-3.390;2023-03-14T01:49:51;100163.28;;;8.57;100.00
23261;BME280;11799;47.740;-3.390;2023-03-14T01:52:29;100173.69;;;8.58;100.00
23261;BME280;11799;47.740;-3.390;2023-03-14T01:55:15;100183.41;;;8.58;100.00
23261;BME280;11799;47.740;-3.390;2023-03-14T01:57:46;100187.94;;;8.56;100.00
23261;BME280;11799;47.740;-3.390;2023-03-14T02:00:15;100188.19;;;8.53;100.00
23261;BME280;11799;47.740;-3.390;2023-03-14T02:02:48;100204.81;;;8.53;100.00
23261;BME280;11799;47.740;-3.390;2023-03-14T02:05:23;100212.00;;;8.51;100.00
23261;BME280;11799;47.740;-3.390;2023-03-14T02:08:01;100214.75;;;8.50;100.00
23261;BME280;11799;47.740;-3.390;2023-03-14T02:10:43;100224.66;;;8.46;100.00
23261;BME280;11799;47.740;-3.390;2023-03-14T02:13:11;100223.94;;;8.44;100.00
23261;BME280;11799;47.740;-3.390;2023-03-14T02:15:48;100235.44;;;8.43;100.00
23261;BME280;11799;47.740;-3.390;2023-03-14T02:18:33;100234.72;;;8.41;100.00
23261;BME280;11799;47.740;-3.390;2023-03-14T02:21:23;100249.91;;;8.38;100.00
23261;BME280;11799;47.740;-3.390;2023-03-14T02:27:05;100270.94;;;8.38;100.00
23261;BME280;11799;47.740;-3.390;2023-03-14T02:29:33;100272.84;;;8.36;100.00
23261;BME280;11799;47.740;-3.390;2023-03-14T02:32:02;100292.84;;;8.38;100.00
23261;BME280;11799;47.740;-3.390;2023-03-14T02:34:28;100285.19;;;8.35;100.00
23261;BME280;11799;47.740;-3.390;2023-03-14T02:36:57;100290.31;;;8.37;100.00
23261;BME280;11799;47.740;-3.390;2023-03-14T02:39:29;100289.59;;;8.35;100.00
23261;BME280;11799;47.740;-3.390;2023-03-14T02:41:57;100291.72;;;8.29;100.00
23261;BME280;11799;47.740;-3.390;2023-03-14T02:44:22;100286.69;;;8.26;100.00
23261;BME280;11799;47.740;-3.390;2023-03-14T02:46:48;100297.31;;;8.25;100.00
23261;BME280;11799;47.740;-3.390;2023-03-14T02:49:14;100304.25;;;8.26;100.00
23261;BME280;11799;47.740;-3.390;2023-03-14T02:51:43;100300.19;;;8.22;100.00
23261;BME280;11799;47.740;-3.390;2023-03-14T02:54:10;100302.81;;;8.22;100.00
23261;BME280;11799;47.740;-3.390;2023-03-14T02:56:35;100317.16;;;8.18;100.00
23261;BME280;11799;47.740;-3.390;2023-03-14T02:59:05;100326.72;;;8.19;100.00
23261;BME280;11799;47.740;-3.390;2023-03-14T03:02:03;100333.88;;;8.17;100.00
23261;BME280;11799;47.740;-3.390;2023-03-14T03:04:30;100335.44;;;8.19;100.00
23261;BME280;11799;47.740;-3.390;2023-03-14T03:06:56;100357.34;;;8.20;100.00
23261;BME280;11799;47.740;-3.390;2023-03-14T03:09:21;100361.63;;;8.21;100.00
23261;BME280;11799;47.740;-3.390;2023-03-14T03:11:47;100355.03;;;8.15;100.00
23261;BME280;11799;47.740;-3.390;2023-03-14T03:14:18;100351.06;;;8.10;100.00
23261;BME280;11799;47.740;-3.390;2023-03-14T03:16:43;100370.81;;;8.04;100.00
23261;BME280;11799;47.740;-3.390;2023-03-14T03:19:09;100367.78;;;7.98;100.00
23261;BME280;11799;47.740;-3.390;2023-03-14T03:21:34;100381.28;;;7.93;100.00
23261;BME280;11799;47.740;-3.390;2023-03-14T03:24:00;100376.59;;;7.85;100.00
23261;BME280;11799;47.740;-3.390;2023-03-14T03:26:25;100386.50;;;7.82;100.00
23261;BME280;11799;47.740;-3.390;2023-03-14T03:28:51;100394.38;;;7.82;100.00
23261;BME280;11799;47.740;-3.390;2023-03-14T03:31:17;100402.09;;;7.72;100.00
23261;BME280;11799;47.740;-3.390;2023-03-14T03:33:43;100393.97;;;7.75;100.00
23261;BME280;11799;47.740;-3.390;2023-03-14T03:36:09;100395.25;;;7.70;100.00
23261;BME280;11799;47.740;-3.390;2023-03-14T03:38:37;100401.25;;;7.72;100.00
23261;BME280;11799;47.740;-3.390;2023-03-14T03:41:06;100405.16;;;7.66;100.00
23261;BME280;11799;47.740;-3.390;2023-03-14T03:43:31;100404.53;;;7.62;100.00
23261;BME280;11799;47.740;-3.390;2023-03-14T03:46:03;100423.78;;;7.63;100.00
23261;BME280;11799;47.740;-3.390;2023-03-14T03:48:29;100421.56;;;7.57;100.00
23261;BME280;11799;47.740;-3.390;2023-03-14T03:50:55;100434.72;;;7.57;100.00
23261;BME280;11799;47.740;-3.390;2023-03-14T03:53:22;100438.19;;;7.57;100.00
23261;BME280;11799;47.740;-3.390;2023-03-14T03:55:47;100447.00;;;7.56;100.00
23261;BME280;11799;47.740;-3.390;2023-03-14T03:58:13;100453.22;;;7.55;100.00
23261;BME280;11799;47.740;-3.390;2023-03-14T04:00:39;100467.19;;;7.56;100.00
23261;BME280;11799;47.740;-3.390;2023-03-14T04:03:05;100456.69;;;7.56;100.00
23261;BME280;11799;47.740;-3.390;2023-03-14T04:05:30;100454.78;;;7.58;100.00
23261;BME280;11799;47.740;-3.390;2023-03-14T04:08:01;100458.00;;;7.50;100.00
23261;BME280;11799;47.740;-3.390;2023-03-14T04:10:29;100483.53;;;7.48;100.00
23261;BME280;11799;47.740;-3.390;2023-03-14T04:13:17;100488.91;;;7.47;100.00
23261;BME280;11799;47.740;-3.390;2023-03-14T04:15:49;100494.38;;;7.44;100.00
23261;BME280;11799;47.740;-3.390;2023-03-14T04:18:21;100490.16;;;7.41;100.00
23261;BME280;11799;47.740;-3.390;2023-03-14T04:20:53;100511.28;;;7.40;100.00
23261;BME280;11799;47.740;-3.390;2023-03-14T04:23:23;100509.19;;;7.32;100.00
23261;BME280;11799;47.740;-3.390;2023-03-14T04:25:52;100510.97;;;7.32;100.00
23261;BME280;11799;47.740;-3.390;2023-03-14T04:28:20;100526.72;;;7.32;100.00
23261;BME280;11799;47.740;-3.390;2023-03-14T04:30:46;100523.38;;;7.29;100.00
23261;BME280;11799;47.740;-3.390;2023-03-14T04:33:16;100540.06;;;7.28;100.00
23261;BME280;11799;47.740;-3.390;2023-03-14T04:35:53;100535.03;;;7.25;100.00
23261;BME280;11799;47.740;-3.390;2023-03-14T04:38:19;100549.84;;;7.26;100.00
23261;BME280;11799;47.740;-3.390;2023-03-14T04:40:46;100558.97;;;7.21;100.00
23261;BME280;11799;47.740;-3.390;2023-03-14T04:43:13;100560.75;;;7.20;100.00
23261;BME280;11799;47.740;-3.390;2023-03-14T04:45:46;100571.28;;;7.20;100.00
23261;BME280;11799;47.740;-3.390;2023-03-14T04:48:12;100562.34;;;7.23;100.00
23261;BME280;11799;47.740;-3.390;2023-03-14T04:50:39;100571.28;;;7.20;100.00
23261;BME280;11799;47.740;-3.390;2023-03-14T04:53:05;100573.25;;;7.17;100.00
23261;BME280;11799;47.740;-3.390;2023-03-14T04:55:32;100575.03;;;7.16;100.00
23261;BME280;11799;47.740;-3.390;2023-03-14T04:57:59;100585.97;;;7.10;100.00
23261;BME280;11799;47.740;-3.390;2023-03-14T05:00:25;100585.97;;;7.10;100.00
23261;BME280;11799;47.740;-3.390;2023-03-14T05:03:25;100592.91;;;7.11;100.00
23261;BME280;11799;47.740;-3.390;2023-03-14T05:06:17;100602.75;;;7.08;100.00
23261;BME280;11799;47.740;-3.390;2023-03-14T05:09:03;100602.22;;;7.03;100.00
23261;BME280;11799;47.740;-3.390;2023-03-14T05:11:59;100605.59;;;7.05;100.00
23261;BME280;11799;47.740;-3.390;2023-03-14T05:14:50;100608.41;;;7.02;100.00
23261;BME280;11799;47.740;-3.390;2023-03-14T05:17:35;100607.56;;;7.01;100.00
23261;BME280;11799;47.740;-3.390;2023-03-14T05:20:21;100616.41;;;7.00;100.00
23261;BME280;11799;47.740;-3.390;2023-03-14T05:23:11;100629.41;;;7.02;100.00
23261;BME280;11799;47.740;-3.390;2023-03-14T05:26:00;100632.34;;;6.97;100.00
23261;BME280;11799;47.740;-3.390;2023-03-14T05:28:37;100626.16;;;6.98;100.00
23261;BME280;11799;47.740;-3.390;2023-03-14T05:31:20;100638.44;;;6.97;100.00
23261;BME280;11799;47.740;-3.390;2023-03-14T05:34:12;100644.53;;;6.98;100.00
23261;BME280;11799;47.740;-3.390;2023-03-14T05:37:04;100642.66;;;7.00;100.00
23261;BME280;11799;47.740;-3.390;2023-03-14T05:39:49;100648.94;;;6.97;100.00
23261;BME280;11799;47.740;-3.390;2023-03-14T05:42:30;100660.28;;;6.98;100.00
23261;BME280;11799;47.740;-3.390;2023-03-14T05:45:07;100670.78;;;6.98;100.00
23261;BME280;11799;47.740;-3.390;2023-03-14T05:47:59;100681.72;;;7.05;99.71
23261;BME280;11799;47.740;-3.390;2023-03-14T05:50:43;100683.22;;;7.09;99.95
23261;BME280;11799;47.740;-3.390;2023-03-14T05:53:19;100686.59;;;7.11;100.00
23261;BME280;11799;47.740;-3.390;2023-03-14T05:56:12;100685.00;;;7.08;100.00
23261;BME280;11799;47.740;-3.390;2023-03-14T05:59:09;100683.53;;;7.04;100.00
23261;BME280;11799;47.740;-3.390;2023-03-14T06:01:57;100700.00;;;7.06;100.00
23261;BME280;11799;47.740;-3.390;2023-03-14T06:04:26;100705.56;;;7.02;100.00
23261;BME280;11799;47.740;-3.390;2023-03-14T06:06:55;100706.41;;;7.02;100.00
23261;BME280;11799;47.740;-3.390;2023-03-14T06:09:21;100702.28;;;6.98;100.00
23261;BME280;11799;47.740;-3.390;2023-03-14T06:11:49;100710.28;;;6.96;100.00
23261;BME280;11799;47.740;-3.390;2023-03-14T06:14:15;100717.41;;;6.94;100.00
23261;BME280;11799;47.740;-3.390;2023-03-14T06:16:43;100720.16;;;6.93;100.00
23261;BME280;11799;47.740;-3.390;2023-03-14T06:19:10;100720.25;;;6.91;100.00
23261;BME280;11799;47.740;-3.390;2023-03-14T06:21:37;100721.28;;;6.89;100.00
23261;BME280;11799;47.740;-3.390;2023-03-14T06:24:02;100726.44;;;6.90;100.00
23261;BME280;11799;47.740;-3.390;2023-03-14T06:26:31;100728.31;;;6.88;100.00
23261;BME280;11799;47.740;-3.390;2023-03-14T06:28:57;100733.56;;;6.88;100.00
23261;BME280;11799;47.740;-3.390;2023-03-14T06:31:26;100738.91;;;6.87;100.00
23261;BME280;11799;47.740;-3.390;2023-03-14T06:33:56;100742.28;;;6.89;100.00
23261;BME280;11799;47.740;-3.390;2023-03-14T06:36:26;100747.72;;;6.86;100.00
23261;BME280;11799;47.740;-3.390;2023-03-14T06:38:51;100747.63;;;6.87;100.00
23261;BME280;11799;47.740;-3.390;2023-03-14T06:41:19;100754.66;;;6.87;100.00
23261;BME280;11799;47.740;-3.390;2023-03-14T06:43:46;100758.88;;;6.89;100.00
23261;BME280;11799;47.740;-3.390;2023-03-14T06:46:12;100770.03;;;6.93;100.00
23261;BME280;11799;47.740;-3.390;2023-03-14T06:48:40;100776.94;;;6.94;100.00
23261;BME280;11799;47.740;-3.390;2023-03-14T06:51:06;100773.28;;;6.96;100.00
23261;BME280;11799;47.740;-3.390;2023-03-14T06:53:32;100787.91;;;7.01;100.00
23261;BME280;11799;47.740;-3.390;2023-03-14T06:56:00;100796.22;;;7.07;100.00
23261;BME280;11799;47.740;-3.390;2023-03-14T06:58:27;100803.81;;;7.12;100.00
23261;BME280;11799;47.740;-3.390;2023-03-14T07:00:53;100819.38;;;7.15;100.00
23261;BME280;11799;47.740;-3.390;2023-03-14T07:03:24;100805.41;;;7.14;100.00
23261;BME280;11799;47.740;-3.390;2023-03-14T07:05:52;100814.31;;;7.12;100.00
23261;BME280;11799;47.740;-3.390;2023-03-14T07:08:18;100820.31;;;7.14;100.00
23261;BME280;11799;47.740;-3.390;2023-03-14T07:10:44;100823.78;;;7.14;100.00
23261;BME280;11799;47.740;-3.390;2023-03-14T07:13:09;100819.66;;;7.10;100.00
23261;BME280;11799;47.740;-3.390;2023-03-14T07:15:45;100833.44;;;7.14;100.00
23261;BME280;11799;47.740;-3.390;2023-03-14T07:18:12;100830.94;;;7.12;100.00
23261;BME280;11799;47.740;-3.390;2023-03-14T07:20:38;100835.34;;;7.12;100.00
23261;BME280;11799;47.740;-3.390;2023-03-14T07:23:04;100844.81;;;7.14;100.00
23261;BME280;11799;47.740;-3.390;2023-03-14T07:25:36;100853.53;;;7.15;100.00
23261;BME280;11799;47.740;-3.390;2023-03-14T07:28:02;100850.59;;;7.19;100.00
23261;BME280;11799;47.740;-3.390;2023-03-14T07:30:28;100876.41;;;7.27;100.00
23261;BME280;11799;47.740;-3.390;2023-03-14T07:32:55;100874.31;;;7.32;100.00
23261;BME280;11799;47.740;-3.390;2023-03-14T07:35:22;100868.59;;;7.40;100.00
23261;BME280;11799;47.740;-3.390;2023-03-14T07:37:48;100873.44;;;7.46;100.00
23261;BME280;11799;47.740;-3.390;2023-03-14T07:40:17;100878.19;;;7.53;100.00
23261;BME280;11799;47.740;-3.390;2023-03-14T07:42:43;100879.47;;;7.60;100.00
23261;BME280;11799;47.740;-3.390;2023-03-14T07:45:15;100880.03;;;7.66;100.00
23261;BME280;11799;47.740;-3.390;2023-03-14T07:47:41;100881.03;;;7.77;100.00
23261;BME280;11799;47.740;-3.390;2023-03-14T07:50:08;100882.94;;;7.88;100.00
23261;BME280;11799;47.740;-3.390;2023-03-14T07:52:34;100886.47;;;8.01;100.00
23261;BME280;11799;47.740;-3.390;2023-03-14T07:54:59;100889.53;;;8.20;100.00
23261;BME280;11799;47.740;-3.390;2023-03-14T07:57:25;100894.78;;;8.60;100.00
23261;BME280;11799;47.740;-3.390;2023-03-14T07:59:50;100886.47;;;9.28;100.00
23261;BME280;11799;47.740;-3.390;2023-03-14T08:02:16;100890.97;;;10.10;100.00
23261;BME280;11799;47.740;-3.390;2023-03-14T08:04:43;100901.41;;;10.47;98.13
23261;BME280;11799;47.740;-3.390;2023-03-14T08:07:08;100905.09;;;10.79;91.66
23261;BME280;11799;47.740;-3.390;2023-03-14T08:09:34;100914.56;;;11.27;90.39
23261;BME280;11799;47.740;-3.390;2023-03-14T08:11:59;100911.13;;;11.58;90.11
23261;BME280;11799;47.740;-3.390;2023-03-14T08:14:25;100911.00;;;11.82;85.34
23261;BME280;11799;47.740;-3.390;2023-03-14T08:16:51;100921.88;;;12.00;82.20
23261;BME280;11799;47.740;-3.390;2023-03-14T08:19:17;100928.53;;;12.15;82.78
23261;BME280;11799;47.740;-3.390;2023-03-14T08:21:42;100939.13;;;12.15;82.08
23261;BME280;11799;47.740;-3.390;2023-03-14T08:24:08;100947.88;;;12.27;82.96
23261;BME280;11799;47.740;-3.390;2023-03-14T08:26:33;100942.97;;;12.22;83.74
23261;BME280;11799;47.740;-3.390;2023-03-14T08:28:59;100942.19;;;12.10;80.60
23261;BME280;11799;47.740;-3.390;2023-03-14T08:31:25;100947.53;;;11.99;83.88
23261;BME280;11799;47.740;-3.390;2023-03-14T08:33:50;100953.94;;;11.85;81.44
23261;BME280;11799;47.740;-3.390;2023-03-14T08:36:20;100961.84;;;11.74;83.85
23261;BME280;11799;47.740;-3.390;2023-03-14T08:38:45;100967.16;;;11.63;85.86
23261;BME280;11799;47.740;-3.390;2023-03-14T08:41:11;100964.44;;;11.53;82.59
23261;BME280;11799;47.740;-3.390;2023-03-14T08:43:37;100974.41;;;11.50;85.03
23261;BME280;11799;47.740;-3.390;2023-03-14T08:46:03;100981.16;;;11.43;86.30
23261;BME280;11799;47.740;-3.390;2023-03-14T08:48:29;100986.56;;;11.41;83.95
23261;BME280;11799;47.740;-3.390;2023-03-14T08:51:24;100991.72;;;11.32;89.03
23261;BME280;11799;47.740;-3.390;2023-03-14T08:53:50;100999.88;;;11.29;87.06
23261;BME280;11799;47.740;-3.390;2023-03-14T08:56:16;101002.53;;;11.17;88.45
23261;BME280;11799;47.740;-3.390;2023-03-14T08:58:41;101015.84;;;11.16;86.63
23261;BME280;11799;47.740;-3.390;2023-03-14T09:01:09;101017.88;;;11.12;90.03
23261;BME280;11799;47.740;-3.390;2023-03-14T09:03:35;101019.09;;;11.08;87.65
23261;BME280;11799;47.740;-3.390;2023-03-14T09:06:09;101024.47;;;11.07;88.64
23261;BME280;11799;47.740;-3.390;2023-03-14T09:08:35;101035.06;;;11.07;85.89
23261;BME280;11799;47.740;-3.390;2023-03-14T09:11:00;101026.06;;;11.09;88.24
23261;BME280;11799;47.740;-3.390;2023-03-14T09:13:27;101040.81;;;11.01;85.45
23261;BME280;11799;47.740;-3.390;2023-03-14T09:15:54;101047.44;;;10.95;84.71
23261;BME280;11799;47.740;-3.390;2023-03-14T09:18:20;101053.41;;;10.86;85.71
23261;BME280;11799;47.740;-3.390;2023-03-14T09:20:46;101048.06;;;10.75;83.25
23261;BME280;11799;47.740;-3.390;2023-03-14T09:23:12;101057.06;;;10.72;87.62
23261;BME280;11799;47.740;-3.390;2023-03-14T09:25:37;101057.19;;;10.71;88.31
23261;BME280;11799;47.740;-3.390;2023-03-14T09:28:03;101063.44;;;10.70;90.22
23261;BME280;11799;47.740;-3.390;2023-03-14T09:30:29;101056.13;;;10.73;91.13
23261;BME280;11799;47.740;-3.390;2023-03-14T09:32:55;101064.16;;;10.72;90.76
23261;BME280;11799;47.740;-3.390;2023-03-14T09:35:20;101067.03;;;10.69;92.59
23261;BME280;11799;47.740;-3.390;2023-03-14T09:37:46;101056.97;;;10.74;90.71
23261;BME280;11799;47.740;-3.390;2023-03-14T09:40:18;101068.59;;;10.71;92.66
23261;BME280;11799;47.740;-3.390;2023-03-14T09:42:50;101075.94;;;10.79;91.32
23261;BME280;11799;47.740;-3.390;2023-03-14T09:45:34;101083.03;;;10.78;95.69
23261;BME280;11799;47.740;-3.390;2023-03-14T09:48:03;101095.41;;;10.78;95.35
23261;BME280;11799;47.740;-3.390;2023-03-14T09:50:42;101093.59;;;10.78;91.25
23261;BME280;11799;47.740;-3.390;2023-03-14T09:53:16;101089.38;;;10.76;89.70
23261;BME280;11799;47.740;-3.390;2023-03-14T09:55:44;101097.81;;;10.81;85.42
23261;BME280;11799;47.740;-3.390;2023-03-14T09:58:13;101102.88;;;10.84;84.40
23261;BME280;11799;47.740;-3.390;2023-03-14T10:00:39;101105.75;;;10.81;83.89
23261;BME280;11799;47.740;-3.390;2023-03-14T10:05:37;101104.66;;;10.83;81.88
23261;BME280;11799;47.740;-3.390;2023-03-14T10:08:03;101119.56;;;10.84;81.06
23261;BME280;11799;47.740;-3.390;2023-03-14T10:10:28;101114.66;;;10.91;81.66
23261;BME280;11799;47.740;-3.390;2023-03-14T10:12:59;101127.66;;;10.94;83.73
23261;BME280;11799;47.740;-3.390;2023-03-14T10:15:30;101134.22;;;10.88;82.57
23261;BME280;11799;47.740;-3.390;2023-03-14T10:17:59;101134.22;;;10.88;78.67
23261;BME280;11799;47.740;-3.390;2023-03-14T10:22:59;101145.53;;;10.90;74.34
23261;BME280;11799;47.740;-3.390;2023-03-14T10:25:33;101146.38;;;10.91;74.80
23261;BME280;11799;47.740;-3.390;2023-03-14T10:27:59;101145.53;;;10.90;76.77
23261;BME280;11799;47.740;-3.390;2023-03-14T10:30:45;101142.66;;;10.94;78.01
23261;BME280;11799;47.740;-3.390;2023-03-14T10:35:42;101152.28;;;10.95;78.23
23261;BME280;11799;47.740;-3.390;2023-03-14T10:38:13;101155.66;;;10.97;79.26
23261;BME280;11799;47.740;-3.390;2023-03-14T10:40:41;101153.72;;;10.99;78.74
23261;BME280;11799;47.740;-3.390;2023-03-14T10:43:16;101163.44;;;10.98;80.36
23261;BME280;11799;47.740;-3.390;2023-03-14T10:45:43;101150.22;;;10.98;79.02
23261;BME280;11799;47.740;-3.390;2023-03-14T10:48:30;101158.19;;;11.09;77.59
23261;BME280;11799;47.740;-3.390;2023-03-14T10:53:25;101153.19;;;11.17;79.55
23261;BME280;11799;47.740;-3.390;2023-03-14T10:55:51;101160.53;;;11.25;72.92
23261;BME280;11799;47.740;-3.390;2023-03-14T10:58:21;101153.97;;;11.31;75.46
23261;BME280;11799;47.740;-3.390;2023-03-14T11:00:54;101161.03;;;11.30;75.21
23261;BME280;11799;47.740;-3.390;2023-03-14T11:03:24;101167.44;;;11.39;76.78
23261;BME280;11799;47.740;-3.390;2023-03-14T11:08:52;101169.28;;;11.49;72.03
23261;BME280;11799;47.740;-3.390;2023-03-14T11:11:25;101181.53;;;11.50;75.02
23261;BME280;11799;47.740;-3.390;2023-03-14T11:16:34;101180.47;;;11.53;71.58
23261;BME280;11799;47.740;-3.390;2023-03-14T11:19:23;101180.81;;;11.59;76.18
23261;BME280;11799;47.740;-3.390;2023-03-14T11:22:36;101184.06;;;11.63;75.99
23261;BME280;11799;47.740;-3.390;2023-03-14T11:32:23;101194.47;;;11.77;73.70
23261;BME280;11799;47.740;-3.390;2023-03-14T11:34:54;101194.34;;;11.79;73.83
23261;BME280;11799;47.740;-3.390;2023-03-14T11:37:31;101190.53;;;11.83;73.05
23261;BME280;11799;47.740;-3.390;2023-03-14T11:42:38;101195.94;;;11.81;67.15
23261;BME280;11799;47.740;-3.390;2023-03-14T11:45:25;101206.88;;;11.88;67.07
23261;BME280;11799;47.740;-3.390;2023-03-14T11:50:52;101193.53;;;11.89;70.87
23261;BME280;11799;47.740;-3.390;2023-03-14T11:56:32;101212.19;;;11.99;65.67
23261;BME280;11799;47.740;-3.390;2023-03-14T11:59:30;101204.25;;;12.10;60.29
23261;BME280;11799;47.740;-3.390;2023-03-14T12:02:01;101213.41;;;12.06;62.81
23261;BME280;11799;47.740;-3.390;2023-03-14T12:08:07;101214.47;;;12.15;64.23
23261;BME280;11799;47.740;-3.390;2023-03-14T12:10:26;101224.59;;;12.21;63.61
23261;BME280;11799;47.740;-3.390;2023-03-14T12:12:52;101230.84;;;12.31;60.57
23261;BME280;11799;47.740;-3.390;2023-03-14T12:15:20;101222.66;;;12.34;57.91
23261;BME280;11799;47.740;-3.390;2023-03-14T12:17:53;101238.66;;;12.33;65.15
23261;BME280;11799;47.740;-3.390;2023-03-14T12:20:24;101235.19;;;12.32;65.64
23261;BME280;11799;47.740;-3.390;2023-03-14T12:22:53;101237.59;;;12.46;57.82
23261;BME280;11799;47.740;-3.390;2023-03-14T12:25:22;101237.94;;;12.53;60.00
23261;BME280;11799;47.740;-3.390;2023-03-14T12:30:35;101241.19;;;12.56;62.20
23261;BME280;11799;47.740;-3.390;2023-03-14T12:35:46;101244.81;;;12.67;59.58
23261;BME280;11799;47.740;-3.390;2023-03-14T12:41:22;101237.28;;;12.83;59.14
23261;BME280;11799;47.740;-3.390;2023-03-14T12:43:50;101232.22;;;12.91;63.33
23261;BME280;11799;47.740;-3.390;2023-03-14T12:48:50;101246.06;;;12.95;61.15
23261;BME280;11799;47.740;-3.390;2023-03-14T12:51:20;101248.59;;;12.96;58.14
23261;BME280;11799;47.740;-3.390;2023-03-14T12:54:19;101262.81;;;12.95;56.84
23261;BME280;11799;47.740;-3.390;2023-03-14T12:59:32;101254.97;;;12.94;55.87
23261;BME280;11799;47.740;-3.390;2023-03-14T13:05:29;101262.81;;;12.95;54.84
23261;BME280;11799;47.740;-3.390;2023-03-14T13:10:27;101268.00;;;12.97;53.67
23261;BME280;11799;47.740;-3.390;2023-03-14T13:13:17;101266.66;;;12.91;53.25
23261;BME280;11799;47.740;-3.390;2023-03-14T13:15:47;101262.81;;;12.84;56.38
23261;BME280;11799;47.740;-3.390;2023-03-14T13:18:16;101267.53;;;12.80;55.60
23261;BME280;11799;47.740;-3.390;2023-03-14T13:20:53;101261.75;;;12.75;54.64
23261;BME280;11799;47.740;-3.390;2023-03-14T13:23:24;101264.81;;;12.71;56.30
23261;BME280;11799;47.740;-3.390;2023-03-14T13:25:50;101260.47;;;12.70;53.59
23261;BME280;11799;47.740;-3.390;2023-03-14T13:28:16;101255.59;;;12.75;56.16
23261;BME280;11799;47.740;-3.390;2023-03-14T13:30:44;101258.66;;;12.70;54.96
23261;BME280;11799;47.740;-3.390;2023-03-14T13:33:18;101267.81;;;12.66;55.04
23261;BME280;11799;47.740;-3.390;2023-03-14T13:35:53;101260.31;;;12.71;57.81
23261;BME280;11799;47.740;-3.390;2023-03-14T13:38:22;101265.38;;;12.74;60.51
23261;BME280;11799;47.740;-3.390;2023-03-14T13:40:49;101258.84;;;12.78;58.27
23261;BME280;11799;47.740;-3.390;2023-03-14T13:43:35;101259.94;;;12.87;56.57
23261;BME280;11799;47.740;-3.390;2023-03-14T13:46:14;101258.72;;;12.91;55.43
23261;BME280;11799;47.740;-3.390;2023-03-14T13:48:44;101264.97;;;12.90;59.11
23261;BME280;11799;47.740;-3.390;2023-03-14T13:51:13;101259.44;;;12.93;57.76
23261;BME280;11799;47.740;-3.390;2023-03-14T13:53:47;101265.47;;;12.95;54.34
23261;BME280;11799;47.740;-3.390;2023-03-14T13:56:14;101267.03;;;12.98;56.20